• Join FlightAware (Why Join?)
  • Login
  • US Flag 
03:28AM EST


 

Airport Tracker/Info


-or-


 

Live Flight TrackerFlight Track Log ✈ NKS212 ✈ 07-Jul-2014 ✈ TIST / STT - KFLL

Flight Track Log - Related Links

Times and Time Zones

All times are in EDT time to prevent confusion due to time zone crossing. See the NKS212 flight status page for this flight to view local times or setup timezone preferences in your user account.

Time Position Orientation Groundspeed Altitude Reporting Facility
EDT Latitude Longitude Course Direction KTS MPH feet Rate Location/Type
04:17PM 18.2883 -65.2179 288° West 300 345 8,200  Level FlightAware ADS-B (TNCM / SXM)
04:18PM 18.2919 -65.2304 286° West 300 345 8,800 2,880 Climbing FlightAware ADS-B (TNCM / SXM)
04:18PM 18.2971 -65.2511 284° West 304 350 9,500 2,100 Climbing FlightAware ADS-B (TNCM / SXM)
04:19PM 18.3094 -65.3134 282° West 337 388 10,700 1,500 Climbing FlightAware ADS-B (TNCM / SXM)
04:19PM 18.3176 -65.3547 284° West 365 420 11,100 1,200 Climbing FlightAware ADS-B (TNCM / SXM)
04:19PM 18.3238 -65.3711 296° West 371 427 11,400 2,220 Climbing FlightAware ADS-B (TNCM / SXM)
04:19PM 18.3380 -65.3919 309° West 371 427 12,000 2,520 Climbing FlightAware ADS-B (TNCM / SXM)
04:20PM 18.3683 -65.4325 309° West 373 429 13,200 2,520 Climbing FlightAware ADS-B (TNCM / SXM)
04:21PM 18.4118 -65.4923 307° West 384 442 14,900 2,160 Climbing FlightAware ADS-B (TNCM / SXM)
04:22PM 18.4995 -65.6154 307° West 407 468 17,600 1,860 Climbing FlightAware ADS-B (TNCM / SXM)
04:25PM 18.6943 -65.8903 307° West 425 489 22,600 1,680 Climbing FlightAware ADS-B (TNCM / SXM)
04:25PM 18.7251 -65.9337 307° West 431 496 23,200 1,500 Climbing FlightAware ADS-B (TNCM / SXM)
04:26PM 18.7674 -65.9936 307° West 432 497 24,200 1,500 Climbing FlightAware ADS-B (TNCM / SXM)
04:26PM 18.8156 -66.0617 307° West 436 502 25,100 1,500 Climbing FlightAware ADS-B (TNCM / SXM)
04:27PM 18.8545 -66.1166 307° West 436 502 26,000 1,440 Climbing FlightAware ADS-B (TNCM / SXM)
04:27PM 18.8897 -66.1663 307° West 439 505 26,600 1,140 Climbing FlightAware ADS-B (TNCM / SXM)
04:28PM 18.9240 -66.2150 307° West 444 511 27,100 1,140 Climbing FlightAware ADS-B (TNCM / SXM)
04:28PM 18.9534 -66.2567 307° West 446 513 27,700 1,080 Climbing FlightAware ADS-B (TNCM / SXM)
04:29PM 18.9936 -66.3136 307° West 449 517 28,300 1,020 Climbing FlightAware ADS-B (TNCM / SXM)
04:29PM 19.0463 -66.3886 307° West 453 521 28,900 1,140 Climbing FlightAware ADS-B (TNCM / SXM)
04:30PM 19.1049 -66.4720 307° West 459 528 29,900 1,140 Climbing FlightAware ADS-B (TNCM / SXM)
04:31PM 19.1439 -66.5276 307° West 459 528 30,600 1,080 Climbing FlightAware ADS-B (TNCM / SXM)
04:32PM 19.2333 -66.6667 307° West 450 518 32,100 1,320 Climbing San Juan Center
04:33PM 19.3167 -66.7667 311° West 460 529 33,600 1,380 Climbing San Juan Center
04:34PM 19.3833 -66.8667 305° West 450 518 34,900 1,200 Climbing San Juan Center
04:35PM 19.4667 -66.9833 307° West 450 518 36,000 540 Climbing San Juan Center
04:36PM 19.5333 -67.0833 305° West 450 518 36,000  Level San Juan Center
04:37PM 19.6000 -67.2000 301° West 450 518 36,000  Level San Juan Center
04:38PM 19.6833 -67.3000 312° West 450 518 36,000  Level San Juan Center
04:39PM 19.7500 -67.4000 305° West 450 518 36,000  Level San Juan Center
04:40PM 19.8333 -67.5167 307° West 450 518 36,000  Level San Juan Center
04:41PM 19.9000 -67.6167 305° West 450 518 36,000  Level San Juan Center
04:42PM 19.9833 -67.7333 307° West 450 518 36,000  Level San Juan Center
04:43PM 20.0500 -67.8333 305° West 450 518 36,000  Level San Juan Center
04:44PM 20.1333 -67.9500 307° West 460 529 36,000  Level San Juan Center
04:45PM 20.2000 -68.0500 305° West 450 518 36,000  Level San Juan Center
04:46PM 20.3031 -68.1869 309° West 455 524 36,000  Level Miami Center
04:47PM 20.3744 -68.2956 305° West 453 521 36,000  Level Miami Center
04:48PM 20.4447 -68.4058 304° West 453 521 36,000  Level Miami Center
04:49PM 20.5119 -68.5189 302° West 453 521 36,000  Level Miami Center
04:50PM 20.5847 -68.6564 300° West 451 519 36,000  Level Miami Center
04:52PM 20.6489 -68.7706 301° West 451 519 36,000  Level Miami Center
04:53PM 20.7125 -68.8844 301° West 451 519 36,000  Level Miami Center
04:54PM 20.7778 -68.9983 302° West 451 519 36,000  Level Miami Center
04:55PM 20.8425 -69.1119 301° West 451 519 36,000  Level Miami Center
04:56PM 20.9072 -69.2256 301° West 450 518 36,000  Level Miami Center
04:57PM 20.9719 -69.3386 302° West 450 518 36,000  Level Miami Center
04:58PM 21.0486 -69.4758 301° West 450 518 36,000  Level Miami Center
04:59PM 21.1125 -69.5894 301° West 450 518 36,000  Level Miami Center
05:00PM 21.1761 -69.7028 301° West 448 516 36,000  Level Miami Center
05:01PM 21.2394 -69.8164 301° West 448 516 36,000  Level Miami Center
05:02PM 21.3019 -69.9286 301° West 444 511 36,000  Level Miami Center
05:03PM 21.3650 -70.0414 301° West 443 510 36,000  Level Miami Center
05:04PM 21.4419 -70.1786 301° West 443 510 36,000  Level Miami Center
05:05PM 21.5053 -70.2922 301° West 444 511 36,000  Level Miami Center
05:06PM 21.5683 -70.4053 301° West 444 511 36,000  Level Miami Center
05:07PM 21.6311 -70.5208 300° West 444 511 36,000  Level Miami Center
05:08PM 21.6947 -70.6344 301° West 444 511 36,000  Level Miami Center
05:09PM 21.7581 -70.7481 301° West 444 511 36,000  Level Miami Center
05:10PM 21.8336 -70.8850 301° West 444 511 36,000  Level Miami Center
05:11PM 21.8958 -70.9994 300° West 445 512 36,000  Level Miami Center
05:12PM 21.9583 -71.1139 301° West 445 512 36,000  Level Miami Center
05:13PM 22.0211 -71.2286 301° West 445 512 36,000  Level Miami Center
05:14PM 22.0847 -71.3442 301° West 445 512 36,000  Level Miami Center
05:15PM 22.1486 -71.4614 300° West 448 516 36,000  Level Miami Center
05:16PM 22.2244 -71.6019 300° West 450 518 36,000  Level Miami Center
05:17PM 22.2892 -71.7181 301° West 451 519 36,000  Level Miami Center
05:18PM 22.3503 -71.8367 299° West 451 519 36,000  Level Miami Center
05:19PM 22.4144 -71.9531 301° West 451 519 36,000  Level Miami Center
05:20PM 22.4769 -72.0700 300° West 451 519 36,000  Level Miami Center
05:21PM 22.5400 -72.1861 300° West 451 519 36,000  Level Miami Center
05:22PM 22.6017 -72.3025 300° West 449 517 36,000  Level Miami Center
05:23PM 22.6772 -72.4422 300° West 449 517 36,000  Level Miami Center
05:24PM 22.7389 -72.5597 300° West 449 517 36,000  Level Miami Center
05:26PM 22.8022 -72.6753 301° West 448 516 36,000  Level Miami Center
05:27PM 22.8625 -72.7919 299° West 448 516 36,000  Level Miami Center
05:28PM 22.9258 -72.9083 301° West 448 516 36,000  Level Miami Center
05:29PM 22.9864 -73.0256 299° West 447 514 36,000  Level Miami Center
05:30PM 23.0578 -73.1594 300° West 447 514 36,000  Level Miami Center
05:31PM 23.1178 -73.2767 299° West 446 513 36,000  Level Miami Center
05:32PM 23.1794 -73.3917 300° West 444 511 36,000  Level Miami Center
05:33PM 23.2253 -73.5144 292° West 441 507 36,000  Level Miami Center
05:34PM 23.2492 -73.6461 281° West 441 507 36,000  Level Miami Center
05:35PM 23.2769 -73.7756 283° West 441 507 36,000  Level Miami Center
05:36PM 23.3125 -73.9306 284° West 441 507 36,000  Level Miami Center
05:37PM 23.3464 -74.0578 286° West 441 507 36,000  Level Miami Center
05:38PM 23.3767 -74.1872 284° West 441 507 36,000  Level Miami Center
05:39PM 23.4075 -74.3172 285° West 443 510 36,000  Level Miami Center
05:40PM 23.4383 -74.4478 284° West 445 512 36,000  Level Miami Center
05:41PM 23.4719 -74.5764 286° West 444 511 36,000  Level Miami Center
05:42PM 23.5028 -74.7067 284° West 444 511 36,000  Level Miami Center
05:43PM 23.5414 -74.8636 285° West 446 513 36,000  Level Miami Center
05:44PM 23.5706 -74.9950 284° West 446 513 36,000  Level Miami Center
05:45PM 23.5942 -75.1283 281° West 447 514 36,000  Level Miami Center
05:46PM 23.6167 -75.2603 281° West 445 512 36,000  Level Miami Center
05:47PM 23.6378 -75.3894 280° West 437 503 36,000  Level Miami Center
05:48PM 23.6628 -75.5172 282° West 437 503 36,000  Level Miami Center
05:49PM 23.6858 -75.6461 281° West 436 502 36,000  Level Miami Center
05:50PM 23.7147 -75.7997 282° West 436 502 36,000  Level Miami Center
05:51PM 23.7386 -75.9311 281° West 442 509 36,000  Level Miami Center
05:52PM 23.7706 -76.0622 285° West 445 512 36,000  Level Miami Center
05:54PM 23.8142 -76.2167 287° West 446 513 36,000  Level Miami Center
05:55PM 23.8814 -76.3239 304° West 430 495 36,000  Level Miami Center
05:56PM 23.9678 -76.4161 316° Northwest 434 499 36,000  Level Miami Center
05:57PM 24.0717 -76.5300 315° West 434 499 36,000  Level Miami Center
05:58PM 24.1611 -76.6286 315° West 440 506 36,000  Level Miami Center
05:59PM 24.2486 -76.7239 315° West 442 509 36,000  Level Miami Center
06:00PM 24.3364 -76.8225 314° West 449 517 36,000  Level Miami Center
06:01PM 24.4336 -76.9292 315° West 448 516 36,000  Level Miami Center
06:02PM 24.5239 -77.0283 315° West 455 524 36,000  Level Miami Center
06:03PM 24.6139 -77.1267 315° West 455 524 36,000  Level Miami Center
06:04PM 24.7036 -77.2258 315° West 456 525 36,100  Climbing Miami Center
06:05PM 24.8017 -77.3347 315° West 455 524 36,000 -60 Descending Miami Center
06:06PM 24.8894 -77.4342 314° West 454 522 36,000  Level Miami Center
06:07PM 24.9722 -77.5342 312° West 452 520 36,000  Level Miami Center
06:08PM 25.0706 -77.6372 317° Northwest 461 531 36,000 -120 Level Miami Center
06:10PM 25.2787 -77.8673 315° West 453 521 35,600 -1,320 Descending FlightAware ADS-B (KEYW)
06:14PM 25.5777 -78.2375 299° West 428 493 28,400 -1,980 Descending FlightAware ADS-B (KEYW)
06:15PM 25.6461 -78.3750 299° West 430 495 26,000 -1,500 Descending Miami Center
06:16PM 25.7086 -78.4789 304° West 404 465 25,000 -1,200 Descending Miami Center
06:17PM 25.7608 -78.5761 301° West 370 426 23,600 -1,500 Descending Miami Center
06:18PM 25.8022 -78.6892 292° West 362 417 21,900 -1,560 Descending Miami Center
06:19PM 25.8078 -78.7981 273° West 351 404 20,400 -1,380 Descending Miami Center
06:20PM 25.8122 -78.9042 273° West 347 399 19,100 -1,440 Descending Miami Center
06:21PM 25.8197 -79.0067 275° West 336 387 17,500 -2,040 Descending Miami Center
06:22PM 25.8247 -79.1044 273° West 323 372 15,000 -1,980 Descending Miami Center
06:23PM 25.8228 -79.1997 269° West 308 354 13,500 -1,440 Descending Miami Center
06:24PM 25.7975 -79.2886 252° West 301 346 12,100 -1,500 Descending Miami Center
06:25PM 25.7725 -79.3889 255° West 291 335 10,500 -1,980 Descending Miami Center
06:26PM 25.7764 -79.4331 276° West 289 333 9,200 -2,640 Descending Miami Center
06:26PM 25.7931 -79.4758 293° West 294 338 7,700 -2,460 Descending Miami Center
06:27PM 25.8072 -79.5161 291° West 288 331 6,700 -1,800 Descending Miami Center
06:27PM 25.8228 -79.5569 293° West 285 328 5,900 -720 Descending Miami Center
06:28PM 25.8381 -79.5969 293° West 287 330 6,000  Climbing Miami Center
06:29PM 25.8539 -79.6383 293° West 287 330 5,900  Descending Miami Center
06:29PM 25.8692 -79.6733 296° West 254 292 6,000  Climbing Miami Center
06:30PM 25.8839 -79.7075 296° West 247 284 5,900  Descending Miami Center
06:30PM 25.8967 -79.7400 294° West 241 277 6,000  Climbing Miami Center
06:31PM 25.9122 -79.7753 296° West 243 280 5,900  Descending Miami Center
06:31PM 25.9281 -79.8119 296° West 239 275 6,000  Climbing Miami Center
06:32PM 25.9400 -79.8411 294° West 239 275 5,900  Descending Miami Center
06:32PM 25.9553 -79.8786 294° West 238 274 6,000  Climbing Miami Center
06:33PM 25.9681 -79.9081 296° West 239 275 5,900  Descending Miami Center
06:33PM 25.9847 -79.9458 296° West 239 275 6,000  Climbing Miami Center
06:34PM 26.0119 -79.9800 312° West 237 273 5,900  Descending Miami Center
06:34PM 26.0297 -80.0000 315° West 239 275 6,000  Climbing Miami Center
06:35PM 26.0581 -80.0319 315° West 237 273 5,900  Descending Miami Center
06:35PM 26.0786 -80.0547 315° West 240 276 6,000  Climbing Miami Center
06:36PM 26.1042 -80.0847 313° West 238 274 5,900  Descending Miami Center
06:36PM 26.1256 -80.1069 317° Northwest 238 274 6,000  Climbing Miami Center
06:37PM 26.1472 -80.1394 307° West 237 273 5,900  Descending Miami Center
06:37PM 26.1594 -80.1700 294° West 237 273 6,000 -300 Climbing Miami Center
06:38PM 26.1742 -80.2058 295° West 237 273 5,600 -900 Descending Miami Center
06:38PM 26.1847 -80.2369 291° West 235 270 5,100 -1,200 Descending Miami Center
06:39PM 26.1872 -80.2758 274° West 235 270 4,400 -1,140 Descending Miami Center
06:39PM 26.1861 -80.3136 268° West 228 262 4,000 -540 Descending Miami Center
06:40PM 26.1825 -80.3622 265° West 235 270 3,900  Descending Miami Center
06:40PM 26.1797 -80.3828 261° West 230 265 4,000  Climbing Miami Center
06:41PM 26.1778 -80.4278 267° West 217 250 3,900  Descending Miami Center
06:41PM 26.1753 -80.4497 263° West 211 243 4,000  Climbing Miami Center
06:42PM 26.1450 -80.4672 207° Southwest 204 235 3,900  Descending Miami Center
06:42PM 26.1281 -80.4669 179° South 200 230 4,000 -540 Climbing Miami Center
06:43PM 26.0958 -80.4567 164° South 184 212 3,400 -1,020 Descending Miami Center
06:43PM 26.0883 -80.4358 112° Southeast 180 207 3,000 -1,020 Descending Miami Center
06:44PM 26.0789 -80.4039 108° East 179 206 2,400 -900 Descending Miami Center
06:44PM 26.0789 -80.3842 90° East 174 200 2,100 -720 Descending Miami Center
06:45PM 26.0781 -80.3506 92° East 176 203 1,700 -300 Descending Miami Center
06:45PM 26.0781 -80.3308 90° East 167 192 1,800  Climbing Miami Center
06:46PM 26.0781 -80.2997 90° East 168 193 1,700  Descending Miami Center
06:46PM 26.0769 -80.2819 94° East 157 181 1,800 -300 Climbing Miami Center
06:47PM 26.0775 -80.2544 89° East 151 174 1,400 -600 Descending Miami Center
06:47PM 26.0778 -80.2378 89° East 141 162 1,200 -720 Descending Miami Center
06:48PM 26.0775 -80.2128 91° East 137 158 700 -720 Descending Miami Center
06:48PM 26.0761 -80.1961 95° East 124 143 500 -840 Descending Miami Center
06:51PM 26.0667 -80.1500 77° East  Level FlightAware Approximate